North Oxford, Massachusetts
Current Conditions -  °F | °C
As of 10:54 PM on Friday 24 Oct 2014 (Local Time) from KORH Reporting Station
Scattered Clouds Scattered Clouds  
Wind Chill: 39°   Ceiling: Unl
Heat Index: 45°   Visibility: 10mi
Dew Point: 40°   Wind: 12mph
Humidity: 82%   Direction: 320°NW
Pressure: 29.74"   Gusts: NA
Location:  42.15°N, 71.87°W
Report Text: KORH 250254Z AUTO 32010KT 10SM SCT017 07/04 A2974 RMK AO2 SLP077 T00720044 $
Loading
Personal Weather Stations






























Interactive Weather Map
Tropical Storm Tracking
New forecast layout! Learn more

10-Day Weather Forecast

Advertisements
Track Severe Weather on mobile